Time;durP1;ratioP1;P1;durP2;ratioP2;P2;SDS_P1;SDS_P2;PMS_P1;PMS_P2;Temp;Humidity;BMP_temperature;BMP_pressure;BME280_temperature;BME280_humidity;BME280_pressure;Samples;Min_cycle;Max_cycle;Signal;HPM_P1;HPM_P2
2021/06/12 00:00:02;;;;;;;34.00;23.33;;;19.10;99.90;;;;;;5024344;28;20459;-71
2021/06/12 00:02:29;;;;;;;27.70;23.37;;;19.10;99.90;;;;;;5025295;28;20463;-69
2021/06/12 00:04:58;;;;;;;29.50;24.70;;;19.10;99.90;;;;;;5022263;28;20452;-67
2021/06/12 00:07:24;;;;;;;28.20;21.33;;;19.10;99.90;;;;;;5022660;28;20436;-69
2021/06/12 00:09:51;;;;;;;31.10;25.90;;;19.20;99.90;;;;;;5027148;28;20436;-72
2021/06/12 00:12:18;;;;;;;32.10;25.70;;;19.20;99.90;;;;;;5021061;28;20492;-71
2021/06/12 00:14:45;;;;;;;27.10;21.57;;;19.20;99.90;;;;;;5023663;28;20544;-69
2021/06/12 00:17:11;;;;;;;29.00;22.60;;;19.20;99.90;;;;;;5024488;28;20550;-71
2021/06/12 00:19:38;;;;;;;37.13;25.53;;;19.20;99.90;;;;;;5032065;28;20470;-69
2021/06/12 00:22:06;;;;;;;36.23;29.47;;;19.20;99.90;;;;;;5024149;28;20446;-71
2021/06/12 00:24:33;;;;;;;41.50;29.33;;;19.20;99.90;;;;;;5026018;28;20460;-70
2021/06/12 00:27:00;;;;;;;38.30;29.67;;;19.20;99.90;;;;;;5025939;28;20451;-71
2021/06/12 00:29:26;;;;;;;39.47;30.43;;;19.20;99.90;;;;;;5029812;28;20522;-69
2021/06/12 00:31:53;;;;;;;45.60;31.23;;;19.10;99.90;;;;;;5016492;28;20471;-72
2021/06/12 00:34:20;;;;;;;38.87;29.00;;;19.10;99.90;;;;;;5016236;28;20659;-70
2021/06/12 00:36:46;;;;;;;37.70;28.80;;;19.10;99.90;;;;;;5024664;28;20555;-72
2021/06/12 00:39:14;;;;;;;36.97;29.33;;;19.10;99.90;;;;;;5022640;28;20435;-68
2021/06/12 00:41:41;;;;;;;36.17;28.27;;;19.10;99.90;;;;;;5024707;28;20624;-68
2021/06/12 00:44:08;;;;;;;33.27;28.00;;;19.10;99.90;;;;;;5030992;28;20693;-69
2021/06/12 00:46:34;;;;;;;35.57;28.30;;;19.20;99.90;;;;;;5024215;28;20458;-69
2021/06/12 00:49:01;;;;;;;28.93;24.50;;;19.30;99.90;;;;;;5023903;28;20569;-71
2021/06/12 00:51:28;;;;;;;36.20;27.17;;;19.20;99.90;;;;;;5019608;28;20485;-69
2021/06/12 00:53:55;;;;;;;36.40;26.00;;;19.30;99.90;;;;;;5028701;28;20444;-71
2021/06/12 00:56:23;;;;;;;32.20;25.70;;;19.30;99.90;;;;;;5024242;28;20467;-70
2021/06/12 00:58:52;;;;;;;33.47;26.20;;;19.40;99.90;;;;;;5023612;28;20511;-69
2021/06/12 01:01:20;;;;;;;29.60;24.23;;;19.40;99.90;;;;;;5024041;28;20522;-69
2021/06/12 01:03:47;;;;;;;35.87;28.83;;;19.30;99.90;;;;;;5024451;28;20669;-70
2021/06/12 01:06:16;;;;;;;34.40;26.40;;;19.40;99.90;;;;;;5023915;28;20474;-70
2021/06/12 01:08:43;;;;;;;30.57;25.03;;;19.30;99.90;;;;;;5025278;28;20663;-70
2021/06/12 01:11:11;;;;;;;28.20;24.10;;;19.40;99.90;;;;;;5023627;28;20502;-69
2021/06/12 01:13:53;;;;;;;26.80;21.70;;;19.40;99.90;;;;;;5022438;28;20466;-71
2021/06/12 01:16:26;;;;;;;29.27;21.33;;;19.40;99.90;;;;;;5019672;28;20459;-69
2021/06/12 01:18:54;;;;;;;33.20;23.23;;;19.40;99.90;;;;;;5034559;28;20554;-72
2021/06/12 01:21:30;;;;;;;29.83;23.83;;;19.50;99.90;;;;;;5019783;28;20734;-69
2021/06/12 01:24:38;;;;;;;31.80;24.83;;;19.40;99.90;;;;;;5024791;28;20442;-70
2021/06/12 01:27:45;;;;;;;30.50;22.70;;;19.40;99.90;;;;;;5027271;28;20627;-70
2021/06/12 01:30:16;;;;;;;41.20;29.97;;;19.40;99.90;;;;;;5030590;28;20435;-69
2021/06/12 01:32:49;;;;;;;29.33;23.27;;;19.30;99.90;;;;;;5018721;28;20467;-70
2021/06/12 01:35:23;;;;;;;40.30;26.87;;;19.20;99.90;;;;;;5015602;28;20441;-70
2021/06/12 01:37:50;;;;;;;36.23;29.07;;;19.10;99.90;;;;;;5010612;28;20485;-68
2021/06/12 01:40:20;;;;;;;34.63;26.53;;;19.00;99.90;;;;;;5026593;28;20435;-70
2021/06/12 01:42:49;;;;;;;33.67;28.80;;;19.00;99.90;;;;;;5032520;28;20452;-67
2021/06/12 01:45:17;;;;;;;36.60;27.20;;;18.90;99.90;;;;;;5022417;28;20435;-69
2021/06/12 01:47:46;;;;;;;41.93;31.17;;;18.90;99.90;;;;;;5028774;28;20471;-70
2021/06/12 01:50:16;;;;;;;32.77;26.33;;;18.80;99.90;;;;;;5028514;28;20447;-71
2021/06/12 01:52:44;;;;;;;35.43;28.33;;;18.80;99.90;;;;;;5027733;28;20498;-69
2021/06/12 01:55:13;;;;;;;33.40;26.30;;;18.90;99.90;;;;;;5026055;28;20459;-71
2021/06/12 01:57:42;;;;;;;37.00;26.97;;;18.90;99.90;;;;;;5032419;28;20454;-70
2021/06/12 02:00:10;;;;;;;34.93;27.47;;;18.80;99.90;;;;;;5033192;28;20611;-71
2021/06/12 02:02:39;;;;;;;35.07;28.97;;;18.80;99.90;;;;;;5025474;28;20912;-70
2021/06/12 02:05:07;;;;;;;38.37;29.50;;;18.80;99.90;;;;;;5032050;28;20511;-71
2021/06/12 02:07:35;;;;;;;45.53;29.00;;;18.80;99.90;;;;;;5026998;28;20508;-70
2021/06/12 02:10:02;;;;;;;43.67;31.20;;;18.70;99.90;;;;;;5029811;28;20546;-69
2021/06/12 02:12:30;;;;;;;41.67;29.10;;;18.70;99.90;;;;;;5034966;28;20475;-69
2021/06/12 02:14:59;;;;;;;40.00;28.27;;;18.70;99.90;;;;;;5026993;28;20436;-71
2021/06/12 02:17:30;;;;;;;39.80;29.33;;;18.70;99.90;;;;;;5024931;28;20455;-70
2021/06/12 02:19:59;;;;;;;39.90;31.37;;;18.70;99.90;;;;;;5029089;28;20584;-70
2021/06/12 02:22:26;;;;;;;41.83;31.07;;;18.80;99.90;;;;;;5019650;28;20440;-69
2021/06/12 02:24:53;;;;;;;44.70;34.27;;;18.80;99.90;;;;;;5023594;28;20510;-70
2021/06/12 02:27:22;;;;;;;45.27;32.97;;;18.80;99.90;;;;;;5025698;28;20519;-69
2021/06/12 02:29:51;;;;;;;44.50;31.20;;;18.90;99.90;;;;;;5028538;28;20432;-69
2021/06/12 02:32:19;;;;;;;45.03;34.63;;;18.90;99.90;;;;;;5023149;28;20640;-68
2021/06/12 02:34:47;;;;;;;48.57;37.93;;;18.90;99.90;;;;;;5026869;28;20444;-69
2021/06/12 02:37:16;;;;;;;44.20;36.13;;;18.90;99.90;;;;;;5027022;28;20452;-69
2021/06/12 02:39:43;;;;;;;43.73;36.60;;;18.90;99.90;;;;;;5030357;28;20499;-70
2021/06/12 02:42:10;;;;;;;48.20;37.50;;;18.90;99.90;;;;;;5032839;28;20499;-69
2021/06/12 02:44:37;;;;;;;45.53;33.97;;;18.90;99.90;;;;;;5027043;28;20436;-69
2021/06/12 02:47:08;;;;;;;48.23;36.03;;;18.80;99.90;;;;;;5026035;28;20474;-69
2021/06/12 02:49:37;;;;;;;42.27;34.20;;;18.90;99.90;;;;;;5025798;28;20455;-70
2021/06/12 02:52:11;;;;;;;43.30;33.20;;;18.80;99.90;;;;;;5026671;28;20483;-69
2021/06/12 02:54:40;;;;;;;48.43;35.80;;;18.80;99.90;;;;;;5024986;28;20489;-69
2021/06/12 02:57:08;;;;;;;40.93;33.50;;;18.80;99.90;;;;;;5022587;28;20463;-68
2021/06/12 02:59:36;;;;;;;36.90;31.27;;;18.80;99.90;;;;;;5022633;28;20486;-70
2021/06/12 03:02:04;;;;;;;42.30;32.43;;;18.80;99.90;;;;;;5028563;28;20515;-69
2021/06/12 03:04:31;;;;;;;45.50;34.00;;;18.80;99.90;;;;;;5027880;28;20717;-70
2021/06/12 03:06:59;;;;;;;44.33;33.33;;;18.90;99.90;;;;;;5022539;28;20456;-70
2021/06/12 03:09:28;;;;;;;38.30;30.33;;;18.90;99.90;;;;;;5025612;28;20436;-68
2021/06/12 03:11:57;;;;;;;36.70;30.27;;;18.90;99.90;;;;;;5023567;28;20486;-69
2021/06/12 03:14:26;;;;;;;39.37;31.43;;;18.90;99.90;;;;;;5023984;28;20432;-69
2021/06/12 03:16:52;;;;;;;40.30;31.00;;;18.90;99.90;;;;;;5027375;28;20749;-69
2021/06/12 03:19:20;;;;;;;33.90;29.50;;;18.90;99.90;;;;;;5009718;28;20702;-68
2021/06/12 03:21:50;;;;;;;43.30;31.70;;;18.90;99.90;;;;;;5015036;28;20436;-70
2021/06/12 03:24:16;;;;;;;38.87;30.87;;;18.90;99.90;;;;;;5026806;28;20490;-68
2021/06/12 03:26:43;;;;;;;39.93;30.93;;;18.90;99.90;;;;;;5021640;28;20456;-69
2021/06/12 03:29:12;;;;;;;42.30;32.10;;;18.90;99.90;;;;;;5025550;28;20486;-69
2021/06/12 03:31:39;;;;;;;43.83;32.67;;;18.80;99.90;;;;;;5025515;28;20474;-70
2021/06/12 03:34:06;;;;;;;37.67;30.77;;;18.80;99.90;;;;;;5025532;28;20478;-70
2021/06/12 03:36:34;;;;;;;42.90;33.73;;;18.80;99.90;;;;;;5026462;28;20594;-68
2021/06/12 03:39:00;;;;;;;40.47;31.33;;;18.80;99.90;;;;;;5025733;28;20616;-69
2021/06/12 03:41:29;;;;;;;44.57;31.50;;;18.80;99.90;;;;;;5015636;28;20433;-69
2021/06/12 03:43:56;;;;;;;42.40;33.67;;;18.70;99.90;;;;;;5025234;28;20507;-69
2021/06/12 03:46:25;;;;;;;42.93;34.90;;;18.80;99.90;;;;;;5012581;28;20482;-69
2021/06/12 03:48:52;;;;;;;43.07;33.03;;;18.70;99.90;;;;;;5025456;28;20507;-68
2021/06/12 03:51:20;;;;;;;45.50;32.27;;;18.70;99.90;;;;;;5025682;28;20484;-70
2021/06/12 03:53:47;;;;;;;42.47;31.57;;;18.60;99.90;;;;;;5015953;28;20435;-69
2021/06/12 03:56:16;;;;;;;45.27;34.00;;;18.70;99.90;;;;;;5023973;28;20487;-69
2021/06/12 03:58:46;;;;;;;41.43;31.73;;;18.70;99.90;;;;;;5024836;28;20705;-68
2021/06/12 04:01:14;;;;;;;40.27;30.40;;;18.70;99.90;;;;;;5025375;28;20471;-69
2021/06/12 04:03:43;;;;;;;43.90;34.80;;;18.80;99.90;;;;;;5030538;28;20434;-69
2021/06/12 04:06:10;;;;;;;44.30;33.67;;;18.80;99.90;;;;;;5023315;28;20476;-69
2021/06/12 04:08:38;;;;;;;42.40;33.47;;;18.90;99.90;;;;;;5018812;28;20490;-68
2021/06/12 04:11:05;;;;;;;45.37;32.73;;;18.90;99.90;;;;;;5033348;28;20706;-68
2021/06/12 04:13:32;;;;;;;48.03;37.00;;;18.90;99.90;;;;;;5030485;28;20507;-70
2021/06/12 04:15:59;;;;;;;49.50;35.67;;;18.80;99.90;;;;;;5023027;28;20460;-70
2021/06/12 04:18:25;;;;;;;48.33;36.60;;;18.80;99.90;;;;;;5025020;28;20431;-69
2021/06/12 04:20:55;;;;;;;41.90;34.30;;;18.80;99.90;;;;;;5023343;28;20527;-69
2021/06/12 04:23:22;;;;;;;48.60;37.30;;;18.90;99.90;;;;;;5025061;28;20452;-69
2021/06/12 04:25:49;;;;;;;43.00;34.73;;;18.80;99.90;;;;;;5024261;28;20470;-68
2021/06/12 04:28:16;;;;;;;44.50;35.17;;;18.80;99.90;;;;;;5020469;28;20443;-68
2021/06/12 04:30:42;;;;;;;52.43;34.53;;;18.80;99.90;;;;;;5024387;28;20678;-68
2021/06/12 04:33:09;;;;;;;47.80;37.67;;;18.80;99.90;;;;;;5022424;28;20491;-68
2021/06/12 04:35:36;;;;;;;40.83;33.27;;;18.90;99.90;;;;;;5019692;28;20441;-68
2021/06/12 04:38:04;;;;;;;43.43;33.90;;;18.80;99.90;;;;;;5021545;28;20440;-68
2021/06/12 04:40:32;;;;;;;40.10;33.70;;;18.80;99.90;;;;;;5024577;28;20471;-68
2021/06/12 04:43:01;;;;;;;55.03;36.07;;;18.90;99.90;;;;;;5023738;28;20522;-68
2021/06/12 04:45:28;;;;;;;46.63;35.60;;;18.80;99.90;;;;;;5024585;28;20540;-68
2021/06/12 04:47:55;;;;;;;38.57;31.67;;;18.80;99.90;;;;;;5024702;28;20428;-68
2021/06/12 04:50:22;;;;;;;41.07;32.50;;;18.90;99.90;;;;;;5025221;28;20510;-68
2021/06/12 04:52:49;;;;;;;52.27;35.80;;;18.90;99.90;;;;;;5024939;28;20491;-70
2021/06/12 04:55:17;;;;;;;44.87;34.03;;;18.90;99.90;;;;;;5024479;28;20467;-68
2021/06/12 04:57:44;;;;;;;47.33;33.30;;;18.90;99.90;;;;;;5019079;28;20681;-68
2021/06/12 05:00:13;;;;;;;41.50;33.77;;;19.00;99.90;;;;;;5023639;28;20469;-69
2021/06/12 05:02:39;;;;;;;45.50;34.10;;;19.00;99.90;;;;;;5029664;28;20666;-69
2021/06/12 05:05:07;;;;;;;48.67;32.93;;;19.00;99.90;;;;;;5018569;28;20522;-70
2021/06/12 05:07:34;;;;;;;35.77;27.07;;;19.10;99.90;;;;;;5032512;28;20621;-68
2021/06/12 05:10:00;;;;;;;43.87;32.67;;;19.10;99.90;;;;;;5035433;28;20505;-68
2021/06/12 05:12:28;;;;;;;41.97;29.60;;;19.20;99.90;;;;;;5025202;28;20531;-69
2021/06/12 05:14:58;;;;;;;40.90;31.70;;;19.30;99.90;;;;;;5024193;28;20632;-69
2021/06/12 05:17:24;;;;;;;41.63;31.83;;;19.30;99.90;;;;;;5024439;28;20456;-69
2021/06/12 05:19:51;;;;;;;40.27;30.83;;;19.20;99.90;;;;;;5017879;28;20498;-69
2021/06/12 05:22:21;;;;;;;39.30;29.50;;;19.30;99.90;;;;;;5023418;28;21032;-69
2021/06/12 05:24:48;;;;;;;41.60;27.63;;;19.40;99.90;;;;;;5023994;28;20427;-69
2021/06/12 05:27:15;;;;;;;39.90;29.33;;;19.40;99.90;;;;;;5022541;28;20489;-69
2021/06/12 05:29:43;;;;;;;35.07;28.67;;;19.40;99.90;;;;;;5019725;28;20447;-69
2021/06/12 05:32:09;;;;;;;31.20;25.73;;;19.50;99.90;;;;;;5026048;28;20474;-69
2021/06/12 05:34:36;;;;;;;37.90;28.80;;;19.60;99.90;;;;;;5023514;28;20486;-69
2021/06/12 05:37:04;;;;;;;35.80;28.80;;;19.60;99.90;;;;;;5028961;28;20447;-69
2021/06/12 05:39:31;;;;;;;42.77;30.50;;;19.70;99.90;;;;;;5018905;28;20495;-68
2021/06/12 05:41:58;;;;;;;34.03;26.73;;;19.80;99.90;;;;;;5025430;28;20439;-69
2021/06/12 05:44:24;;;;;;;37.73;28.97;;;19.80;99.90;;;;;;5024148;28;20424;-68
2021/06/12 05:46:52;;;;;;;34.83;27.40;;;19.80;99.90;;;;;;5023719;28;20470;-69
2021/06/12 05:49:20;;;;;;;40.67;28.07;;;19.70;99.90;;;;;;5023384;28;20671;-68
2021/06/12 05:51:47;;;;;;;34.83;27.97;;;19.60;99.90;;;;;;5019720;28;20467;-69
2021/06/12 05:54:14;;;;;;;49.73;28.07;;;19.70;99.90;;;;;;5023781;28;20436;-69
2021/06/12 05:56:40;;;;;;;36.53;27.03;;;19.70;99.90;;;;;;5031226;28;20455;-69
2021/06/12 05:59:08;;;;;;;32.47;25.30;;;19.70;99.90;;;;;;5017716;28;20501;-69
2021/06/12 06:01:34;;;;;;;35.37;25.80;;;19.80;99.90;;;;;;5025376;28;20721;-70
2021/06/12 06:04:04;;;;;;;36.73;28.80;;;19.80;99.90;;;;;;5034625;28;20583;-70
2021/06/12 06:06:31;;;;;;;33.57;27.30;;;19.80;99.90;;;;;;5021491;28;20506;-71
2021/06/12 06:08:59;;;;;;;36.17;27.43;;;19.90;99.90;;;;;;5027910;28;20502;-71
2021/06/12 06:11:25;;;;;;;42.63;25.83;;;19.90;99.90;;;;;;5017503;28;20525;-72
2021/06/12 06:13:52;;;;;;;33.17;26.47;;;20.10;99.90;;;;;;5028814;28;20620;-73
2021/06/12 06:16:19;;;;;;;37.60;29.40;;;20.10;99.90;;;;;;5028036;28;20466;-70
2021/06/12 06:18:46;;;;;;;36.77;28.40;;;20.10;99.90;;;;;;5027035;28;20432;-70
2021/06/12 06:21:16;;;;;;;38.60;27.83;;;20.30;99.90;;;;;;5026965;28;20979;-71
2021/06/12 06:23:43;;;;;;;35.20;26.10;;;20.30;99.90;;;;;;5027416;28;20498;-72
2021/06/12 06:26:10;;;;;;;28.97;23.97;;;20.30;99.90;;;;;;5025590;28;20457;-73
2021/06/12 06:28:36;;;;;;;33.63;27.10;;;20.30;99.90;;;;;;5026571;28;20451;-72
2021/06/12 06:31:03;;;;;;;34.73;26.10;;;20.50;99.90;;;;;;5026949;28;20463;-72
2021/06/12 06:33:30;;;;;;;35.07;25.43;;;20.70;99.90;;;;;;5027086;28;20453;-71
2021/06/12 06:35:57;;;;;;;31.60;24.70;;;20.80;99.90;;;;;;5025420;28;20687;-71
2021/06/12 06:38:26;;;;;;;36.00;26.63;;;20.90;99.90;;;;;;5026144;28;20445;-71
2021/06/12 06:40:53;;;;;;;34.90;25.20;;;20.90;99.90;;;;;;5026951;28;20433;-71
2021/06/12 06:43:19;;;;;;;25.90;21.10;;;20.90;99.90;;;;;;5024953;28;20648;-72
2021/06/12 06:45:47;;;;;;;34.07;22.07;;;21.20;99.90;;;;;;5018693;28;20446;-71
2021/06/12 06:48:16;;;;;;;25.07;21.67;;;21.60;99.90;;;;;;5025339;28;20441;-71
2021/06/12 06:50:43;;;;;;;25.40;20.80;;;21.80;99.90;;;;;;5026800;28;20450;-72
2021/06/12 06:53:10;;;;;;;27.87;22.13;;;21.90;99.90;;;;;;5032547;28;20474;-72
2021/06/12 06:55:38;;;;;;;28.50;21.13;;;21.80;99.90;;;;;;5031384;28;20554;-71
2021/06/12 06:58:06;;;;;;;26.20;21.77;;;21.70;99.90;;;;;;5015496;28;21536;-71
2021/06/12 07:00:33;;;;;;;27.47;21.87;;;21.70;99.90;;;;;;5019854;28;20671;-70
2021/06/12 07:03:00;;;;;;;26.17;22.97;;;21.60;99.90;;;;;;5031661;28;20684;-71
2021/06/12 07:05:27;;;;;;;28.60;23.10;;;21.50;99.90;;;;;;5018742;28;20541;-71
2021/06/12 07:07:54;;;;;;;26.97;22.90;;;21.40;99.90;;;;;;5016587;28;20426;-72
2021/06/12 07:10:21;;;;;;;29.40;21.50;;;21.30;99.90;;;;;;5016848;28;20599;-72
2021/06/12 07:12:49;;;;;;;29.60;20.47;;;21.30;99.90;;;;;;5023516;28;20757;-71
2021/06/12 07:15:16;;;;;;;25.77;21.30;;;21.30;99.90;;;;;;5025630;28;20431;-72
2021/06/12 07:17:45;;;;;;;22.40;19.33;;;21.60;99.90;;;;;;5020728;28;20457;-69
2021/06/12 07:20:13;;;;;;;24.60;19.37;;;21.80;99.90;;;;;;5023628;28;20435;-70
2021/06/12 07:22:40;;;;;;;24.77;20.73;;;21.80;99.90;;;;;;5025650;28;20787;-69
2021/06/12 07:25:08;;;;;;;23.40;20.20;;;21.80;99.90;;;;;;5023565;28;20705;-71
2021/06/12 07:27:35;;;;;;;22.97;19.63;;;21.60;99.90;;;;;;5010270;28;20594;-70
2021/06/12 07:30:04;;;;;;;21.10;18.80;;;21.40;99.90;;;;;;5025337;28;20450;-69
2021/06/12 07:32:31;;;;;;;21.57;17.90;;;21.10;99.90;;;;;;5025465;28;20548;-70
2021/06/12 07:34:58;;;;;;;23.90;19.33;;;21.00;99.90;;;;;;5024838;28;20522;-68
2021/06/12 07:37:24;;;;;;;24.07;21.30;;;20.80;99.90;;;;;;5025648;28;20568;-68
2021/06/12 07:39:51;;;;;;;26.27;19.33;;;20.70;99.90;;;;;;5024668;28;20466;-69
2021/06/12 07:42:18;;;;;;;20.57;18.03;;;20.60;99.90;;;;;;5025229;28;20467;-69
2021/06/12 07:44:45;;;;;;;21.27;16.80;;;20.70;99.90;;;;;;5017551;28;20637;-68
2021/06/12 07:47:13;;;;;;;23.50;18.40;;;20.70;99.90;;;;;;5021077;28;20527;-68
2021/06/12 07:49:40;;;;;;;20.17;17.60;;;21.10;99.90;;;;;;5019013;28;20431;-67
2021/06/12 07:52:07;;;;;;;20.43;17.47;;;21.60;99.90;;;;;;5022507;28;20477;-69
2021/06/12 07:54:34;;;;;;;19.83;17.70;;;21.90;99.90;;;;;;5019241;28;20435;-68
2021/06/12 07:57:01;;;;;;;19.50;17.07;;;22.20;99.90;;;;;;5021565;28;20722;-70
2021/06/12 07:59:28;;;;;;;20.80;16.07;;;22.60;99.90;;;;;;5020474;28;20436;-70
2021/06/12 08:01:54;;;;;;;17.37;15.53;;;23.40;99.90;;;;;;5011974;28;20437;-70
2021/06/12 08:04:24;;;;;;;16.97;14.77;;;24.30;99.90;;;;;;5015875;28;20490;-71
2021/06/12 08:06:50;;;;;;;17.87;15.10;;;24.90;99.90;;;;;;5013811;28;20465;-72
2021/06/12 08:09:18;;;;;;;16.23;14.53;;;25.40;99.90;;;;;;5025564;28;20548;-70
2021/06/12 08:11:45;;;;;;;15.37;13.57;;;25.10;99.90;;;;;;5021479;28;20492;-71
2021/06/12 08:14:12;;;;;;;14.70;13.30;;;24.80;99.90;;;;;;5024664;28;20452;-70
2021/06/12 08:16:39;;;;;;;15.27;12.80;;;24.60;99.90;;;;;;5024970;28;20690;-71
2021/06/12 08:19:06;;;;;;;14.93;13.50;;;24.00;99.90;;;;;;5020022;28;20447;-73
2021/06/12 08:21:35;;;;;;;11.97;10.67;;;23.70;99.90;;;;;;5025633;28;20424;-72
2021/06/12 08:24:02;;;;;;;12.57;11.27;;;24.20;99.90;;;;;;5024788;28;20450;-69
2021/06/12 08:26:29;;;;;;;18.53;14.30;;;24.40;99.90;;;;;;5015455;28;20464;-71
2021/06/12 08:28:56;;;;;;;16.23;14.53;;;24.60;99.90;;;;;;5011023;28;20435;-72
2021/06/12 08:31:23;;;;;;;16.43;13.73;;;24.70;99.90;;;;;;5019242;28;20478;-71
2021/06/12 08:33:50;;;;;;;14.53;13.10;;;25.00;99.90;;;;;;5020981;28;20440;-73
2021/06/12 08:36:17;;;;;;;15.40;13.30;;;24.50;99.60;;;;;;5018798;28;20464;-73
2021/06/12 08:38:45;;;;;;;15.07;12.37;;;24.50;99.90;;;;;;5020307;28;20441;-72
2021/06/12 08:41:12;;;;;;;13.23;11.93;;;24.20;99.90;;;;;;5023242;28;20534;-72
2021/06/12 08:43:39;;;;;;;12.80;10.37;;;23.80;99.90;;;;;;5024388;28;20486;-72
2021/06/12 08:46:07;;;;;;;11.53;10.37;;;23.40;99.90;;;;;;5024146;28;20714;-73
2021/06/12 08:48:36;;;;;;;10.37;8.80;;;23.10;99.90;;;;;;5023781;28;20438;-71
2021/06/12 08:51:03;;;;;;;9.97;8.13;;;23.00;99.90;;;;;;5024673;28;20451;-72
2021/06/12 08:53:31;;;;;;;12.40;8.07;;;23.00;99.90;;;;;;5017143;28;20443;-72
2021/06/12 08:56:00;;;;;;;7.03;6.40;;;23.00;99.90;;;;;;5020107;28;20702;-72
2021/06/12 08:58:27;;;;;;;6.10;5.07;;;22.80;99.90;;;;;;5023759;28;20482;-71
2021/06/12 09:00:55;;;;;;;6.87;4.87;;;22.60;99.90;;;;;;5023984;28;20478;-71
2021/06/12 09:03:24;;;;;;;7.77;6.00;;;22.40;99.90;;;;;;5024352;28;20503;-71
2021/06/12 09:05:53;;;;;;;5.27;4.70;;;22.40;99.90;;;;;;5019366;28;20476;-70
2021/06/12 09:08:22;;;;;;;7.53;5.30;;;22.30;99.90;;;;;;5020231;28;20436;-71
2021/06/12 09:10:55;;;;;;;6.33;5.17;;;22.30;99.90;;;;;;5023586;28;20443;-71
2021/06/12 09:13:42;;;;;;;8.70;4.90;;;22.50;99.90;;;;;;5023607;28;20510;-71
2021/06/12 09:16:24;;;;;;;12.37;5.20;;;22.70;99.90;;;;;;5014172;28;20455;-70
2021/06/12 09:18:52;;;;;;;13.77;5.87;;;23.10;99.90;;;;;;5018250;28;20463;-70
2021/06/12 09:21:30;;;;;;;8.57;5.77;;;23.80;99.30;;;;;;5025578;28;20463;-69
2021/06/12 09:23:58;;;;;;;8.13;4.10;;;24.40;98.40;;;;;;5015936;28;20461;-69
2021/06/12 09:26:42;;;;;;;6.20;4.40;;;24.80;95.10;;;;;;5022811;28;20566;-69
2021/06/12 09:29:10;;;;;;;6.53;4.37;;;25.30;94.40;;;;;;5023456;28;20431;-71
2021/06/12 09:31:44;;;;;;;5.60;4.87;;;25.70;92.90;;;;;;5022815;28;20467;-71
2021/06/12 09:34:14;;;;;;;7.30;4.30;;;26.40;91.70;;;;;;5015564;28;20424;-70
2021/06/12 09:36:43;;;;;;;8.90;4.70;;;26.20;90.90;;;;;;5011786;28;20470;-70
2021/06/12 09:39:13;;;;;;;6.13;4.40;;;26.00;90.70;;;;;;5021727;28;20563;-71
2021/06/12 09:41:43;;;;;;;8.67;4.87;;;25.90;91.30;;;;;;5031918;28;20502;-70
2021/06/12 09:44:12;;;;;;;7.97;4.13;;;25.90;91.10;;;;;;5022556;28;20483;-70
2021/06/12 09:46:41;;;;;;;8.20;4.50;;;25.40;91.50;;;;;;5035711;28;20463;-70
2021/06/12 09:49:11;;;;;;;7.47;4.10;;;24.40;90.90;;;;;;5023366;28;20432;-70
2021/06/12 09:51:38;;;;;;;10.23;4.67;;;23.80;91.80;;;;;;5027500;28;20479;-71
2021/06/12 09:54:11;;;;;;;7.10;3.97;;;23.50;92.90;;;;;;5024972;28;20468;-72
2021/06/12 09:56:38;;;;;;;6.13;3.93;;;23.20;92.20;;;;;;5026416;28;20455;-71
2021/06/12 09:59:19;;;;;;;9.50;4.30;;;23.00;93.20;;;;;;5025705;28;20511;-70
2021/06/12 10:01:51;;;;;;;12.03;4.47;;;22.70;93.70;;;;;;5022324;28;20500;-70
2021/06/12 10:04:17;;;;;;;7.33;3.83;;;22.60;94.10;;;;;;5019453;28;20478;-70
2021/06/12 10:06:44;;;;;;;12.87;4.77;;;22.60;94.20;;;;;;5021816;28;20448;-69
2021/06/12 10:09:11;;;;;;;12.50;5.00;;;23.10;95.50;;;;;;5026067;28;20455;-72
2021/06/12 10:11:38;;;;;;;9.20;4.60;;;23.70;94.50;;;;;;5027301;28;20463;-72
2021/06/12 10:14:06;;;;;;;10.17;4.20;;;24.50;93.60;;;;;;5025965;28;20448;-73
2021/06/12 10:16:39;;;;;;;7.37;3.70;;;24.80;92.40;;;;;;5026865;28;20564;-71
2021/06/12 10:19:07;;;;;;;4.73;3.57;;;24.70;91.30;;;;;;5025730;28;20432;-70
2021/06/12 10:21:34;;;;;;;7.60;3.90;;;24.00;91.70;;;;;;5026682;28;20440;-72
2021/06/12 10:24:06;;;;;;;8.20;4.00;;;23.50;92.30;;;;;;5032640;28;20710;-70
2021/06/12 10:26:33;;;;;;;5.63;3.43;;;23.30;92.60;;;;;;5020241;28;20457;-71
2021/06/12 10:29:01;;;;;;;9.00;3.90;;;23.20;92.30;;;;;;5039744;28;20454;-71
2021/06/12 10:31:34;;;;;;;5.63;3.20;;;23.40;92.60;;;;;;5026381;28;20435;-71
2021/06/12 10:34:02;;;;;;;8.50;4.03;;;24.20;91.40;;;;;;5026423;28;20507;-71
2021/06/12 10:36:31;;;;;;;5.00;3.07;;;24.90;90.40;;;;;;5026835;28;20452;-70
2021/06/12 10:38:59;;;;;;;6.20;2.90;;;25.10;87.60;;;;;;5021827;28;20440;-70
2021/06/12 10:41:28;;;;;;;3.90;2.40;;;25.00;86.20;;;;;;5026612;28;20436;-70
2021/06/12 10:43:57;;;;;;;6.23;2.70;;;25.00;85.50;;;;;;5026028;28;20532;-71
2021/06/12 10:46:25;;;;;;;4.27;2.37;;;25.10;84.30;;;;;;5024160;28;20521;-72
2021/06/12 10:48:53;;;;;;;9.23;3.00;;;25.20;84.40;;;;;;5024742;28;20444;-72
2021/06/12 10:51:46;;;;;;;6.57;2.87;;;25.20;84.50;;;;;;5019669;28;20439;-70
2021/06/12 10:54:23;;;;;;;8.13;2.70;;;25.60;85.10;;;;;;5022390;28;20427;-70
2021/06/12 10:56:55;;;;;;;4.43;2.23;;;25.40;82.60;;;;;;5023846;28;20452;-70
2021/06/12 10:59:45;;;;;;;6.50;2.40;;;25.10;85.10;;;;;;5025124;28;20452;-71
2021/06/12 11:02:16;;;;;;;3.83;2.37;;;25.10;83.00;;;;;;5019896;28;20471;-73
2021/06/12 11:04:49;;;;;;;3.70;2.50;;;25.50;81.40;;;;;;5025810;28;20460;-72
2021/06/12 11:07:31;;;;;;;4.33;1.90;;;25.20;81.30;;;;;;5024569;28;20535;-71
2021/06/12 11:10:23;;;;;;;5.60;2.40;;;25.20;80.70;;;;;;5019267;28;20693;-71
2021/06/12 11:12:52;;;;;;;5.07;2.00;;;25.00;80.00;;;;;;5018819;28;20479;-68
2021/06/12 11:15:35;;;;;;;3.83;2.13;;;25.10;80.70;;;;;;5014787;28;20428;-68
2021/06/12 11:18:17;;;;;;;4.97;2.07;;;24.80;79.10;;;;;;5018712;28;20446;-71
2021/06/12 11:20:46;;;;;;;10.17;2.90;;;24.70;79.70;;;;;;5025710;28;20486;-68
2021/06/12 11:23:17;;;;;;;7.50;2.23;;;24.30;80.80;;;;;;5025357;28;20564;-69
2021/06/12 11:26:06;;;;;;;8.97;2.57;;;24.40;82.30;;;;;;5015938;28;20425;-69
2021/06/12 11:28:35;;;;;;;5.37;2.07;;;24.60;81.80;;;;;;5015018;28;20428;-69
2021/06/12 11:31:35;;;;;;;4.13;1.73;;;24.70;80.70;;;;;;5017264;28;20547;-68
2021/06/12 11:34:23;;;;;;;5.10;2.10;;;24.90;80.20;;;;;;5023414;28;20486;-69
2021/06/12 11:37:11;;;;;;;6.73;2.30;;;25.10;80.10;;;;;;5021049;28;20440;-69
2021/06/12 11:39:53;;;;;;;3.70;1.80;;;25.20;78.10;;;;;;5026280;28;20509;-69
2021/06/12 11:42:20;;;;;;;6.33;1.83;;;24.90;78.30;;;;;;5026133;28;20518;-69
2021/06/12 11:44:46;;;;;;;4.13;1.80;;;24.60;78.90;;;;;;5024461;28;20500;-69
2021/06/12 11:47:25;;;;;;;3.90;1.90;;;24.70;80.30;;;;;;5024103;28;20579;-69
2021/06/12 11:49:52;;;;;;;2.97;2.10;;;24.90;78.90;;;;;;5024947;28;20454;-69
2021/06/12 11:52:19;;;;;;;4.50;1.50;;;25.10;78.50;;;;;;5025939;28;20538;-70
2021/06/12 11:54:46;;;;;;;4.40;1.83;;;24.90;77.90;;;;;;5016659;28;20583;-69
2021/06/12 11:57:14;;;;;;;5.47;2.00;;;24.80;77.60;;;;;;5023190;28;20474;-70
2021/06/12 11:59:43;;;;;;;3.60;1.80;;;24.60;77.50;;;;;;5013564;28;20462;-69
2021/06/12 12:02:10;;;;;;;2.17;1.50;;;24.50;77.50;;;;;;5014567;28;20431;-69
2021/06/12 12:04:39;;;;;;;5.47;1.70;;;24.30;78.10;;;;;;5016334;28;20438;-69
2021/06/12 12:07:07;;;;;;;3.20;1.70;;;24.30;78.00;;;;;;5016721;28;20483;-70
2021/06/12 12:09:36;;;;;;;5.87;2.60;;;24.30;78.30;;;;;;5013249;28;20446;-69
2021/06/12 12:12:04;;;;;;;3.30;1.87;;;24.20;79.30;;;;;;5011512;28;20564;-69
2021/06/12 12:14:34;;;;;;;3.23;1.70;;;24.30;79.10;;;;;;5011347;28;20557;-70
2021/06/12 12:17:02;;;;;;;4.53;2.20;;;24.30;77.50;;;;;;5007315;28;20598;-69
2021/06/12 12:19:29;;;;;;;5.00;2.53;;;24.40;77.80;;;;;;5012357;28;20432;-69
2021/06/12 12:21:57;;;;;;;7.53;2.53;;;24.50;77.90;;;;;;5016867;28;20495;-69
2021/06/12 12:24:28;;;;;;;5.97;1.97;;;24.60;77.60;;;;;;5015976;28;20671;-69
2021/06/12 12:26:58;;;;;;;4.90;2.30;;;24.20;77.70;;;;;;5016159;28;20742;-71
2021/06/12 12:29:26;;;;;;;5.33;2.30;;;24.00;78.70;;;;;;5016478;28;20446;-71
2021/06/12 12:31:54;;;;;;;2.53;1.63;;;23.80;79.40;;;;;;5018993;28;20510;-69
2021/06/12 12:34:30;;;;;;;4.17;2.00;;;23.90;80.00;;;;;;5020609;28;20562;-70
2021/06/12 12:36:57;;;;;;;4.70;1.90;;;23.90;80.10;;;;;;5020764;28;20463;-70
2021/06/12 12:39:35;;;;;;;5.97;1.90;;;23.90;79.80;;;;;;5025068;28;20432;-70
2021/06/12 12:42:02;;;;;;;5.47;2.20;;;24.00;79.50;;;;;;5020566;28;20432;-70